Time;durP1;ratioP1;P1;durP2;ratioP2;P2;SDS_P1;SDS_P2;PMS_P1;PMS_P2;Temp;Humidity;BMP_temperature;BMP_pressure;BME280_temperature;BME280_humidity;BME280_pressure;Samples;Min_cycle;Max_cycle;Signal;HPM_P1;HPM_P2
2023/03/18 00:01:14;;;;;;;;;;;14.60;94.00;;;;;;5002617;28;19917;-93
2023/03/18 00:03:40;;;;;;;;;;;14.60;94.00;;;;;;5002383;28;20013;-91
2023/03/18 00:06:08;;;;;;;;;;;14.60;94.20;;;;;;5002313;28;19960;-93
2023/03/18 00:08:34;;;;;;;;;;;14.60;94.50;;;;;;5005822;28;19979;-92
2023/03/18 00:10:59;;;;;;;;;;;14.70;94.80;;;;;;5001816;28;19910;-93
2023/03/18 00:13:26;;;;;;;;;;;14.70;94.70;;;;;;5003918;28;19910;-96
2023/03/18 00:15:52;;;;;;;;;;;14.70;94.50;;;;;;5021144;28;19909;-91
2023/03/18 00:18:18;;;;;;;;;;;14.60;94.40;;;;;;5009524;28;19909;-93
2023/03/18 00:20:52;;;;;;;;;;;14.60;94.40;;;;;;5005290;28;19909;-92
2023/03/18 00:23:17;;;;;;;;;;;14.60;94.40;;;;;;5016525;28;19909;-93
2023/03/18 00:25:45;;;;;;;;;;;14.50;94.60;;;;;;4999531;28;19952;-91
2023/03/18 00:28:11;;;;;;;;;;;14.60;94.70;;;;;;5007410;28;19921;-95
2023/03/18 00:30:38;;;;;;;;;;;14.50;94.90;;;;;;5006416;28;19916;-93
2023/03/18 00:33:04;;;;;;;;;;;14.50;94.90;;;;;;5003422;28;19910;-94
2023/03/18 00:35:30;;;;;;;;;;;14.50;95.20;;;;;;5002081;28;19929;-93
2023/03/18 00:37:57;;;;;;;;;;;14.50;95.10;;;;;;5002967;28;20384;-92
2023/03/18 00:40:28;;;;;;;;;;;14.40;95.20;;;;;;4987348;28;19914;-91
2023/03/18 00:43:00;;;;;;;;;;;14.40;95.30;;;;;;5002222;28;19915;-91
2023/03/18 00:45:26;;;;;;;;;;;14.40;95.40;;;;;;5001738;28;19915;-92
2023/03/18 00:47:51;;;;;;;;;;;14.40;95.50;;;;;;5001728;28;20007;-95
2023/03/18 00:50:17;;;;;;;;;;;14.30;95.70;;;;;;5017591;28;19909;-92
2023/03/18 00:52:43;;;;;;;;;;;14.30;95.80;;;;;;5001348;28;19917;-90
2023/03/18 00:55:09;;;;;;;;;;;14.30;95.80;;;;;;5000877;28;19952;-94
2023/03/18 00:57:35;;;;;;;;;;;14.20;96.00;;;;;;5017701;28;19933;-92
2023/03/18 01:00:03;;;;;;;;;;;14.20;96.30;;;;;;5001198;28;19893;-94
2023/03/18 01:02:30;;;;;;;;;;;14.20;96.30;;;;;;5019094;28;19925;-93
2023/03/18 01:04:56;;;;;;;;;;;14.20;96.60;;;;;;5000431;28;19909;-91
2023/03/18 01:07:22;;;;;;;;;;;14.20;96.80;;;;;;5000364;28;19918;-90
2023/03/18 01:09:48;;;;;;;;;;;14.20;96.90;;;;;;5000816;28;19913;-93
2023/03/18 01:12:14;;;;;;;;;;;14.20;97.30;;;;;;5001296;28;19914;-94
2023/03/18 01:14:40;;;;;;;;;;;14.20;97.50;;;;;;4984469;28;20280;-93
2023/03/18 01:17:08;;;;;;;;;;;14.20;97.50;;;;;;5000646;28;19918;-91
2023/03/18 01:19:34;;;;;;;;;;;14.20;97.40;;;;;;5001720;28;19909;-95
2023/03/18 01:22:00;;;;;;;;;;;14.20;97.60;;;;;;5001688;28;19994;-93
2023/03/18 01:24:26;;;;;;;;;;;14.10;97.80;;;;;;5000997;28;19910;-94
2023/03/18 01:26:52;;;;;;;;;;;14.20;98.00;;;;;;5002752;28;19909;-93
2023/03/18 01:29:19;;;;;;;;;;;14.20;98.20;;;;;;5003357;28;19914;-93
2023/03/18 01:31:45;;;;;;;;;;;14.20;98.60;;;;;;5003644;28;19963;-92
2023/03/18 01:34:11;;;;;;;;;;;14.20;98.60;;;;;;5022899;28;19921;-93
2023/03/18 01:36:37;;;;;;;;;;;14.10;98.40;;;;;;5015485;28;19917;-92
2023/03/18 01:39:05;;;;;;;;;;;14.10;98.50;;;;;;5014706;28;19914;-93
2023/03/18 01:41:30;;;;;;;;;;;14.10;98.60;;;;;;5012576;28;19921;-93
2023/03/18 01:43:56;;;;;;;;;;;14.00;98.70;;;;;;5024575;28;20289;-94
2023/03/18 01:46:33;;;;;;;;;;;14.00;99.10;;;;;;5001172;28;20391;-93
2023/03/18 01:49:01;;;;;;;;;;;13.90;99.20;;;;;;5001655;28;19929;-96
2023/03/18 01:51:28;;;;;;;;;;;13.80;99.50;;;;;;5004214;28;20047;-93
2023/03/18 01:53:55;;;;;;;;;;;13.80;99.60;;;;;;5009361;28;19941;-93
2023/03/18 01:56:21;;;;;;;;;;;13.80;99.80;;;;;;5007752;28;19964;-94
2023/03/18 01:58:48;;;;;;;;;;;13.80;99.90;;;;;;4995823;28;19913;-93
2023/03/18 02:01:27;;;;;;;;;;;13.70;99.90;;;;;;5015593;28;19920;-94
2023/03/18 02:03:55;;;;;;;;;;;13.70;99.90;;;;;;5009260;28;20009;-93
2023/03/18 02:06:21;;;;;;;;;;;13.80;99.90;;;;;;4999696;28;19976;-94
2023/03/18 02:08:48;;;;;;;;;;;13.70;99.90;;;;;;5000007;28;19968;-94
2023/03/18 02:11:14;;;;;;;;;;;13.70;99.90;;;;;;4992635;28;19924;-93
2023/03/18 02:13:51;;;;;;;;;;;13.70;99.90;;;;;;5007395;28;19910;-93
2023/03/18 02:16:26;;;;;;;;;;;13.70;99.90;;;;;;4999179;28;19909;-93
2023/03/18 02:18:53;;;;;;;;;;;13.70;99.90;;;;;;5016759;28;19969;-94
2023/03/18 02:21:38;;;;;;;;;;;13.70;99.90;;;;;;4999305;28;20309;-93
2023/03/18 02:24:22;;;;;;;;;;;13.70;99.90;;;;;;4999118;28;19916;-92
2023/03/18 02:27:07;;;;;;;;;;;13.70;99.90;;;;;;5017258;28;19921;-94
2023/03/18 02:29:34;;;;;;;;;;;13.70;99.90;;;;;;5017525;28;19917;-94
2023/03/18 02:32:00;;;;;;;;;;;13.70;99.90;;;;;;4999481;28;19918;-96
2023/03/18 02:34:27;;;;;;;;;;;13.70;99.90;;;;;;4999929;28;19921;-95
2023/03/18 02:36:52;;;;;;;;;;;13.70;99.90;;;;;;4997094;28;19992;-92
2023/03/18 02:39:20;;;;;;;;;;;13.70;99.90;;;;;;4993679;28;19964;-94
2023/03/18 02:41:46;;;;;;;;;;;13.70;99.90;;;;;;5021041;28;19910;-94
2023/03/18 02:44:11;;;;;;;;;;;13.60;99.90;;;;;;5003350;28;19919;-94
2023/03/18 02:46:46;;;;;;;;;;;13.60;99.90;;;;;;5005907;28;19913;-94
2023/03/18 02:49:12;;;;;;;;;;;13.60;99.90;;;;;;5023523;28;19923;-93
2023/03/18 02:51:39;;;;;;;;;;;13.50;99.90;;;;;;5041236;28;19917;-94
2023/03/18 02:54:12;;;;;;;;;;;13.50;99.90;;;;;;5035798;28;19893;-92
2023/03/18 02:56:40;;;;;;;;;;;13.40;99.90;;;;;;5041979;28;19909;-93
2023/03/18 02:59:06;;;;;;;;;;;13.30;99.90;;;;;;5039859;28;19920;-93
2023/03/18 03:01:32;;;;;;;;;;;13.30;99.90;;;;;;5007194;28;19921;-94
2023/03/18 03:03:58;;;;;;;;;;;13.20;99.90;;;;;;5020657;28;19916;-92
2023/03/18 03:06:24;;;;;;;;;;;13.20;99.90;;;;;;5020909;28;19910;-94
2023/03/18 03:08:50;;;;;;;;;;;13.20;99.90;;;;;;5015990;28;19924;-94
2023/03/18 03:11:16;;;;;;;;;;;13.20;99.90;;;;;;5012175;28;19917;-92
2023/03/18 03:13:44;;;;;;;;;;;13.20;99.90;;;;;;4991076;28;19924;-93
2023/03/18 03:16:10;;;;;;;;;;;13.20;99.90;;;;;;5007615;28;19921;-91
2023/03/18 03:18:36;;;;;;;;;;;13.20;99.90;;;;;;5001253;28;19913;-94
2023/03/18 03:21:01;;;;;;;;;;;13.20;99.90;;;;;;5002467;28;19916;-94
2023/03/18 03:23:27;;;;;;;;;;;13.20;99.90;;;;;;4986422;28;20016;-95
2023/03/18 03:25:52;;;;;;;;;;;13.10;99.90;;;;;;4986681;28;19913;-94
2023/03/18 03:28:18;;;;;;;;;;;13.10;99.90;;;;;;5003345;28;20340;-95
2023/03/18 03:30:44;;;;;;;;;;;13.00;99.90;;;;;;5002803;28;19914;-94
2023/03/18 03:33:09;;;;;;;;;;;13.10;99.90;;;;;;5001703;28;19914;-92
2023/03/18 03:35:40;;;;;;;;;;;13.00;99.90;;;;;;5004058;28;19996;-94
2023/03/18 03:38:06;;;;;;;;;;;13.10;99.90;;;;;;5002202;28;19921;-94
2023/03/18 03:40:31;;;;;;;;;;;13.10;99.90;;;;;;5001817;28;20744;-93
2023/03/18 03:42:57;;;;;;;;;;;13.10;99.90;;;;;;4986741;28;20400;-95
2023/03/18 03:45:23;;;;;;;;;;;13.10;99.90;;;;;;4986094;28;19921;-93
2023/03/18 03:47:50;;;;;;;;;;;13.20;99.90;;;;;;5002655;28;19964;-96
2023/03/18 03:50:16;;;;;;;;;;;13.10;99.90;;;;;;5002101;28;19909;-94
2023/03/18 03:52:42;;;;;;;;;;;13.20;99.90;;;;;;5008073;28;19959;-95
2023/03/18 03:55:09;;;;;;;;;;;13.20;99.90;;;;;;5002303;28;20365;-94
2023/03/18 03:57:35;;;;;;;;;;;13.20;99.90;;;;;;5002081;28;20024;-95
2023/03/18 04:00:02;;;;;;;;;;;13.20;99.90;;;;;;5006576;28;19910;-94
2023/03/18 04:02:28;;;;;;;;;;;13.20;99.90;;;;;;5023530;28;19898;-94
2023/03/18 04:04:54;;;;;;;;;;;13.10;99.90;;;;;;5022460;28;19913;-92
2023/03/18 04:07:19;;;;;;;;;;;13.10;99.90;;;;;;4986394;28;19922;-94
2023/03/18 04:09:45;;;;;;;;;;;13.10;99.90;;;;;;5004013;28;19909;-96
2023/03/18 04:12:11;;;;;;;;;;;13.10;99.90;;;;;;5008807;28;19909;-94
2023/03/18 04:14:37;;;;;;;;;;;13.00;99.90;;;;;;5001034;28;19960;-94
2023/03/18 04:17:03;;;;;;;;;;;13.00;99.90;;;;;;5023073;28;19921;-94
2023/03/18 04:19:29;;;;;;;;;;;13.00;99.90;;;;;;5003755;28;19925;-94
2023/03/18 04:21:55;;;;;;;;;;;13.00;99.90;;;;;;5019382;28;19988;-95
2023/03/18 04:24:21;;;;;;;;;;;13.00;99.90;;;;;;5002283;28;19910;-95
2023/03/18 04:26:47;;;;;;;;;;;13.00;99.90;;;;;;5002149;28;19909;-94
2023/03/18 04:29:12;;;;;;;;;;;12.90;99.90;;;;;;4986845;28;19927;-94
2023/03/18 04:31:38;;;;;;;;;;;12.90;99.90;;;;;;4985961;28;19917;-93
2023/03/18 04:34:03;;;;;;;;;;;12.90;99.90;;;;;;5004624;28;19904;-95
2023/03/18 04:36:29;;;;;;;;;;;12.80;99.90;;;;;;5002040;28;19921;-95
2023/03/18 04:38:55;;;;;;;;;;;12.80;99.90;;;;;;5002796;28;20257;-95
2023/03/18 04:41:21;;;;;;;;;;;12.80;99.90;;;;;;5001286;28;19909;-95
2023/03/18 04:43:47;;;;;;;;;;;12.80;99.90;;;;;;5002546;28;20392;-95
2023/03/18 04:46:13;;;;;;;;;;;12.90;99.90;;;;;;5019579;28;19913;-94
2023/03/18 04:48:39;;;;;;;;;;;12.80;99.90;;;;;;5001864;28;19926;-96
2023/03/18 04:51:07;;;;;;;;;;;12.80;99.90;;;;;;5002307;28;19917;-94
2023/03/18 04:53:33;;;;;;;;;;;12.80;99.90;;;;;;4985460;28;19971;-94
2023/03/18 04:55:59;;;;;;;;;;;12.80;99.90;;;;;;4985425;28;19917;-95
2023/03/18 04:58:25;;;;;;;;;;;12.80;99.90;;;;;;5001806;28;19910;-94
2023/03/18 05:00:52;;;;;;;;;;;12.70;99.90;;;;;;5001116;28;20265;-93
2023/03/18 05:03:20;;;;;;;;;;;12.70;99.90;;;;;;5018635;28;19916;-95
2023/03/18 05:05:48;;;;;;;;;;;12.70;99.90;;;;;;5001413;28;19913;-94
2023/03/18 05:08:14;;;;;;;;;;;12.70;99.90;;;;;;5001471;28;20373;-95
2023/03/18 05:10:40;;;;;;;;;;;12.70;99.90;;;;;;5001079;28;19957;-94
2023/03/18 05:13:06;;;;;;;;;;;12.70;99.90;;;;;;5018748;28;19913;-94
2023/03/18 05:15:31;;;;;;;;;;;12.70;99.90;;;;;;5001181;28;19937;-94
2023/03/18 05:17:57;;;;;;;;;;;12.70;99.90;;;;;;5017982;28;19910;-95
2023/03/18 05:20:23;;;;;;;;;;;12.70;99.90;;;;;;5018465;28;19909;-92
2023/03/18 05:22:48;;;;;;;;;;;12.70;99.90;;;;;;5011868;28;19918;-93
2023/03/18 05:25:14;;;;;;;;;;;12.60;99.90;;;;;;5009074;28;20262;-92
2023/03/18 05:27:40;;;;;;;;;;;12.60;99.90;;;;;;5000199;28;19983;-93
2023/03/18 05:30:07;;;;;;;;;;;12.50;99.90;;;;;;5000414;28;20281;-93
2023/03/18 05:32:32;;;;;;;;;;;12.60;99.90;;;;;;5000846;28;19910;-94
2023/03/18 05:34:58;;;;;;;;;;;12.50;99.90;;;;;;5000667;28;19933;-93
2023/03/18 05:37:23;;;;;;;;;;;12.50;99.90;;;;;;5000524;28;19969;-94
2023/03/18 05:39:49;;;;;;;;;;;12.50;99.90;;;;;;5000755;28;19910;-95
2023/03/18 05:42:15;;;;;;;;;;;12.50;99.90;;;;;;5000546;28;19909;-95
2023/03/18 05:44:41;;;;;;;;;;;12.50;99.90;;;;;;4999775;28;20366;-94
2023/03/18 05:47:07;;;;;;;;;;;12.40;99.90;;;;;;4999345;28;19909;-96
2023/03/18 05:49:33;;;;;;;;;;;12.40;99.90;;;;;;5001344;28;20420;-95
2023/03/18 05:52:01;;;;;;;;;;;12.40;99.90;;;;;;5000389;28;20404;-94
2023/03/18 05:54:27;;;;;;;;;;;12.40;99.90;;;;;;5000784;28;19921;-94
2023/03/18 05:56:53;;;;;;;;;;;12.40;99.90;;;;;;5001452;28;19921;-94
2023/03/18 05:59:19;;;;;;;;;;;12.40;99.90;;;;;;4985069;28;19917;-95
2023/03/18 06:01:45;;;;;;;;;;;12.40;99.90;;;;;;5001699;28;19913;-95
2023/03/18 06:04:11;;;;;;;;;;;12.40;99.90;;;;;;5018852;28;19910;-95
2023/03/18 06:06:39;;;;;;;;;;;12.40;99.90;;;;;;5013354;28;19908;-92
2023/03/18 06:09:09;;;;;;;;;;;12.40;99.90;;;;;;5038353;28;19973;-93
2023/03/18 06:11:35;;;;;;;;;;;12.40;99.90;;;;;;5014641;28;19913;-94
2023/03/18 06:14:03;;;;;;;;;;;12.30;99.90;;;;;;5002027;28;19957;-95
2023/03/18 06:16:29;;;;;;;;;;;12.30;99.90;;;;;;5005337;28;19913;-95
2023/03/18 06:18:57;;;;;;;;;;;12.30;99.90;;;;;;5036296;28;19908;-95
2023/03/18 06:21:23;;;;;;;;;;;12.30;99.90;;;;;;5020488;28;19897;-94
2023/03/18 06:23:49;;;;;;;;;;;12.30;99.90;;;;;;5004101;28;19973;-93
2023/03/18 06:26:15;;;;;;;;;;;12.30;99.90;;;;;;5038446;28;19913;-92
2023/03/18 06:28:41;;;;;;;;;;;12.30;99.90;;;;;;5020415;28;19910;-94
2023/03/18 06:31:07;;;;;;;;;;;12.40;99.90;;;;;;5017902;28;19910;-95
2023/03/18 06:33:35;;;;;;;;;;;12.40;99.90;;;;;;5033690;28;19909;-90
2023/03/18 06:36:01;;;;;;;;;;;12.40;99.90;;;;;;5008364;28;19925;-93
2023/03/18 06:38:27;;;;;;;;;;;12.40;99.90;;;;;;5003696;28;19936;-95
2023/03/18 06:40:55;;;;;;;;;;;12.50;99.90;;;;;;4987491;28;19923;-94
2023/03/18 06:43:21;;;;;;;;;;;12.50;99.90;;;;;;5002395;28;19914;-96
2023/03/18 06:45:46;;;;;;;;;;;12.50;99.90;;;;;;5001832;28;19990;-94
2023/03/18 06:48:13;;;;;;;;;;;12.50;99.90;;;;;;4986463;28;19917;-93
2023/03/18 06:50:39;;;;;;;;;;;12.50;99.90;;;;;;5001750;28;19914;-94
2023/03/18 06:53:06;;;;;;;;;;;12.50;99.90;;;;;;5002469;28;19976;-94
2023/03/18 06:55:32;;;;;;;;;;;12.50;99.90;;;;;;5000865;28;19985;-95
2023/03/18 06:57:57;;;;;;;;;;;12.50;99.90;;;;;;5000764;28;19960;-96
2023/03/18 07:00:23;;;;;;;;;;;12.60;99.90;;;;;;5000545;28;19909;-94
2023/03/18 07:02:49;;;;;;;;;;;12.60;99.90;;;;;;4999984;28;19988;-93
2023/03/18 07:05:16;;;;;;;;;;;12.60;99.90;;;;;;5000640;28;20004;-95
2023/03/18 07:07:42;;;;;;;;;;;12.60;99.90;;;;;;5001000;28;20281;-94
2023/03/18 07:10:12;;;;;;;;;;;12.60;99.90;;;;;;5000368;28;19920;-96
2023/03/18 07:12:39;;;;;;;;;;;12.60;99.90;;;;;;5000164;28;19918;-94
2023/03/18 07:15:05;;;;;;;;;;;12.70;99.90;;;;;;5001763;28;19921;-95
2023/03/18 07:17:30;;;;;;;;;;;12.70;99.90;;;;;;4987659;28;19914;-92
2023/03/18 07:19:56;;;;;;;;;;;12.70;99.90;;;;;;5001626;28;19917;-96
2023/03/18 07:22:23;;;;;;;;;;;12.70;99.90;;;;;;5065787;23;19949;-94
2023/03/18 07:24:50;;;;;;;;;;;12.70;99.90;;;;;;4990344;28;19924;-94
2023/03/18 07:27:15;;;;;;;;;;;12.70;99.90;;;;;;5003331;28;20279;-95
2023/03/18 07:29:41;;;;;;;;;;;12.70;99.90;;;;;;5005916;28;19910;-92
2023/03/18 07:32:07;;;;;;;;;;;12.80;99.90;;;;;;4998551;28;19941;-93
2023/03/18 07:34:32;;;;;;;;;;;12.80;99.90;;;;;;4981555;28;19976;-93
2023/03/18 07:36:58;;;;;;;;;;;12.80;99.90;;;;;;4982072;28;20005;-92
2023/03/18 07:39:23;;;;;;;;;;;12.80;99.90;;;;;;5003027;28;19921;-92
2023/03/18 07:41:50;;;;;;;;;;;12.90;99.90;;;;;;4997738;28;19965;-93
2023/03/18 07:44:16;;;;;;;;;;;12.90;99.90;;;;;;4997667;28;19961;-92
2023/03/18 07:46:41;;;;;;;;;;;12.90;99.90;;;;;;4981946;28;19914;-94
2023/03/18 07:49:07;;;;;;;;;;;13.00;99.90;;;;;;4982702;28;19925;-95
2023/03/18 07:51:32;;;;;;;;;;;13.00;99.90;;;;;;4983065;28;19921;-94
2023/03/18 07:53:58;;;;;;;;;;;13.10;99.90;;;;;;4984901;28;19983;-96
2023/03/18 07:56:24;;;;;;;;;;;13.10;99.90;;;;;;4999696;28;20339;-95
2023/03/18 07:58:50;;;;;;;;;;;13.10;99.90;;;;;;5001203;28;19933;-95
2023/03/18 08:01:18;;;;;;;;;;;13.10;99.90;;;;;;4983987;28;19918;-95
2023/03/18 08:03:45;;;;;;;;;;;13.20;99.90;;;;;;5007814;28;19910;-96
2023/03/18 08:06:11;;;;;;;;;;;13.20;99.90;;;;;;4989785;28;19914;-94
2023/03/18 08:08:37;;;;;;;;;;;13.20;99.90;;;;;;5000575;28;19960;-95
2023/03/18 08:11:03;;;;;;;;;;;13.30;99.90;;;;;;5006410;28;19961;-95
2023/03/18 08:13:28;;;;;;;;;;;13.30;99.90;;;;;;4989537;28;19922;-95
2023/03/18 08:15:55;;;;;;;;;;;13.40;99.90;;;;;;4986696;28;20272;-95
2023/03/18 08:18:21;;;;;;;;;;;13.30;99.90;;;;;;5006736;28;19898;-95
2023/03/18 08:20:48;;;;;;;;;;;13.40;99.90;;;;;;4993525;28;19898;-95
2023/03/18 08:23:13;;;;;;;;;;;13.40;99.90;;;;;;5006936;28;19917;-95
2023/03/18 08:25:40;;;;;;;;;;;13.40;99.90;;;;;;4995833;28;19940;-96
2023/03/18 08:28:06;;;;;;;;;;;13.50;99.90;;;;;;5001825;28;20008;-94
2023/03/18 08:30:32;;;;;;;;;;;13.50;99.90;;;;;;5000989;28;19910;-95
2023/03/18 08:32:58;;;;;;;;;;;13.50;99.90;;;;;;4989109;28;20359;-93
2023/03/18 08:35:23;;;;;;;;;;;13.60;99.90;;;;;;4985231;28;19921;-93
2023/03/18 08:37:50;;;;;;;;;;;13.50;99.90;;;;;;4998474;28;19910;-89
2023/03/18 08:40:16;;;;;;;;;;;13.60;99.90;;;;;;4985583;28;20256;-90
2023/03/18 08:42:42;;;;;;;;;;;13.60;99.90;;;;;;5019727;28;19901;-94
2023/03/18 08:45:08;;;;;;;;;;;13.60;99.90;;;;;;5023597;28;19898;-91
2023/03/18 08:47:34;;;;;;;;;;;13.70;99.90;;;;;;5002613;28;19949;-92
2023/03/18 08:50:00;;;;;;;;;;;13.70;99.90;;;;;;5005289;28;19910;-91
2023/03/18 08:52:25;;;;;;;;;;;13.80;99.90;;;;;;5001926;28;19914;-88
2023/03/18 08:54:51;;;;;;;;;;;13.80;99.90;;;;;;4991259;28;19914;-87
2023/03/18 08:57:17;;;;;;;;;;;13.80;99.90;;;;;;5001863;28;19928;-88
2023/03/18 08:59:42;;;;;;;;;;;13.80;99.90;;;;;;4999296;28;19913;-89
2023/03/18 09:02:13;;;;;;;;;;;13.80;99.90;;;;;;4999965;28;19960;-90
2023/03/18 09:04:39;;;;;;;;;;;13.90;99.90;;;;;;5000395;28;20368;-91
2023/03/18 09:07:04;;;;;;;;;;;14.00;99.90;;;;;;4999567;28;20008;-90
2023/03/18 09:09:30;;;;;;;;;;;14.00;99.90;;;;;;4999574;28;19913;-90
2023/03/18 09:11:56;;;;;;;;;;;14.00;99.90;;;;;;5000558;28;19914;-91
2023/03/18 09:14:22;;;;;;;;;;;14.00;99.90;;;;;;5000137;28;20067;-91
2023/03/18 09:16:48;;;;;;;;;;;14.10;99.90;;;;;;4999273;28;19921;-89
2023/03/18 09:19:16;;;;;;;;;;;14.10;99.90;;;;;;4999718;28;19909;-94
2023/03/18 09:21:42;;;;;;;;;;;14.20;99.90;;;;;;5000198;28;19925;-89
2023/03/18 09:24:08;;;;;;;;;;;14.20;99.90;;;;;;5000970;28;19977;-90
2023/03/18 09:26:33;;;;;;;;;;;14.20;99.90;;;;;;5000769;28;19914;-90
2023/03/18 09:28:59;;;;;;;;;;;14.30;99.90;;;;;;4999830;28;19986;-93
2023/03/18 09:31:25;;;;;;;;;;;14.30;99.90;;;;;;4999797;28;20366;-93
2023/03/18 09:33:51;;;;;;;;;;;14.30;99.90;;;;;;4999973;28;19914;-93
2023/03/18 09:36:17;;;;;;;;;;;14.40;99.90;;;;;;4999309;28;19960;-91
2023/03/18 09:38:42;;;;;;;;;;;14.40;99.90;;;;;;5004979;28;19913;-90
2023/03/18 09:41:11;;;;;;;;;;;14.50;99.90;;;;;;5002039;28;19917;-91
2023/03/18 09:43:56;;;;;;;;;;;14.60;99.90;;;;;;5008798;28;19917;-91
2023/03/18 09:46:33;;;;;;;;;;;14.60;99.90;;;;;;4998469;28;20362;-92
2023/03/18 09:49:02;;;;;;;;;;;14.60;99.90;;;;;;4997973;28;19952;-91
2023/03/18 09:51:46;;;;;;;;;;;14.70;99.90;;;;;;4998155;28;19914;-91
2023/03/18 09:54:19;;;;;;;;;;;14.80;99.90;;;;;;4998221;28;19920;-92
2023/03/18 09:56:46;;;;;;;;;;;14.90;99.90;;;;;;4997628;28;19910;-86
2023/03/18 09:59:44;;;;;;;;;;;15.00;99.90;;;;;;4997733;28;20375;-90
2023/03/18 10:02:18;;;;;;;;;;;15.10;99.90;;;;;;4982582;28;19909;-91
2023/03/18 10:04:58;;;;;;;;;;;15.10;99.90;;;;;;4998608;28;19909;-91
2023/03/18 10:07:36;;;;;;;;;;;15.20;99.90;;;;;;4998350;28;20366;-90
2023/03/18 10:10:08;;;;;;;;;;;15.30;99.90;;;;;;4995043;28;20021;-92
2023/03/18 10:12:34;;;;;;;;;;;15.30;99.90;;;;;;4992365;28;19916;-92
2023/03/18 10:15:07;;;;;;;;;;;15.40;99.90;;;;;;5015777;28;19957;-92
2023/03/18 10:17:38;;;;;;;;;;;15.40;99.90;;;;;;5000625;28;19914;-86
2023/03/18 10:20:12;;;;;;;;;;;15.50;99.90;;;;;;4994647;28;19916;-87
2023/03/18 10:22:51;;;;;;;;;;;15.50;99.90;;;;;;4985871;28;19975;-86
2023/03/18 10:25:20;;;;;;;;;;;15.50;99.90;;;;;;4977916;28;19909;-88
2023/03/18 10:28:02;;;;;;;;;;;15.60;99.90;;;;;;4973664;28;20279;-88
2023/03/18 10:30:31;;;;;;;;;;;15.60;99.90;;;;;;4977921;28;19993;-88
2023/03/18 10:33:09;;;;;;;;;;;15.70;99.90;;;;;;4993325;28;19909;-90
2023/03/18 10:36:03;;;;;;;;;;;15.70;99.90;;;;;;4980975;28;19913;-90
2023/03/18 10:38:35;;;;;;;;;;;15.70;99.90;;;;;;4943709;28;19911;-92
2023/03/18 10:41:01;;;;;;;;;;;15.80;99.90;;;;;;4978656;28;19972;-92
2023/03/18 10:43:29;;;;;;;;;;;15.80;99.90;;;;;;4978655;28;19980;-93
2023/03/18 10:46:04;;;;;;;;;;;15.90;99.90;;;;;;4978345;28;19910;-94
2023/03/18 10:48:49;;;;;;;;;;;16.00;99.90;;;;;;4962214;28;19949;-92
2023/03/18 10:51:18;;;;;;;;;;;16.10;99.90;;;;;;4982936;28;20310;-94
2023/03/18 10:53:44;;;;;;;;;;;16.20;99.90;;;;;;4981653;28;19916;-92
2023/03/18 10:56:11;;;;;;;;;;;16.30;99.90;;;;;;4978034;28;20000;-86
2023/03/18 10:58:38;;;;;;;;;;;16.40;99.90;;;;;;4977075;28;19960;-87
2023/03/18 11:01:09;;;;;;;;;;;16.40;99.90;;;;;;4997267;28;19933;-87
2023/03/18 11:03:39;;;;;;;;;;;16.50;99.90;;;;;;4981009;28;19910;-87
2023/03/18 11:06:10;;;;;;;;;;;16.60;99.90;;;;;;4981454;28;20465;-91
2023/03/18 11:08:38;;;;;;;;;;;16.80;99.90;;;;;;4981922;28;19964;-91
2023/03/18 11:11:21;;;;;;;;;;;16.90;99.90;;;;;;4982084;28;20020;-91
2023/03/18 11:13:49;;;;;;;;;;;17.00;99.90;;;;;;4981335;28;19916;-92
2023/03/18 11:16:24;;;;;;;;;;;17.10;99.90;;;;;;4981755;28;19910;-91
2023/03/18 11:18:51;;;;;;;;;;;17.10;99.90;;;;;;4999011;28;20379;-91
2023/03/18 11:21:17;;;;;;;;;;;17.20;99.90;;;;;;5000380;28;19918;-92
2023/03/18 11:23:55;;;;;;;;;;;17.20;99.90;;;;;;5003626;28;19913;-92
2023/03/18 11:26:25;;;;;;;;;;;17.30;99.90;;;;;;5022245;28;19909;-92
2023/03/18 11:28:55;;;;;;;;;;;17.40;99.90;;;;;;5001850;28;19925;-93
2023/03/18 11:31:20;;;;;;;;;;;17.50;99.90;;;;;;5002138;28;20359;-93
2023/03/18 11:33:46;;;;;;;;;;;17.60;99.90;;;;;;5005352;28;19929;-92
2023/03/18 11:36:17;;;;;;;;;;;17.60;99.90;;;;;;5003022;28;19910;-92
2023/03/18 11:38:46;;;;;;;;;;;17.70;99.90;;;;;;5001166;28;19992;-93
2023/03/18 11:41:26;;;;;;;;;;;17.70;99.90;;;;;;5000893;28;20005;-90
2023/03/18 11:44:02;;;;;;;;;;;17.80;99.90;;;;;;5000381;28;19916;-87
2023/03/18 11:46:47;;;;;;;;;;;17.90;99.90;;;;;;4999975;28;19910;-89
2023/03/18 11:49:17;;;;;;;;;;;17.90;99.90;;;;;;4965777;28;20371;-88
2023/03/18 11:52:16;;;;;;;;;;;18.00;99.90;;;;;;4980783;28;19909;-88
2023/03/18 11:54:50;;;;;;;;;;;18.00;99.90;;;;;;4976187;28;19911;-88
2023/03/18 11:57:41;;;;;;;;;;;18.10;99.90;;;;;;4990763;28;19911;-93
2023/03/18 12:00:17;;;;;;;;;;;18.20;99.90;;;;;;4987799;28;20453;-90
2023/03/18 12:02:45;;;;;;;;;;;18.20;99.90;;;;;;4978761;28;19910;-91
2023/03/18 12:05:16;;;;;;;;;;;18.20;99.90;;;;;;4978737;28;20014;-94
2023/03/18 12:07:48;;;;;;;;;;;18.30;99.80;;;;;;4980442;28;19937;-94
2023/03/18 12:10:18;;;;;;;;;;;18.30;99.90;;;;;;4981433;28;19953;-94
2023/03/18 12:12:47;;;;;;;;;;;18.30;99.70;;;;;;4976967;28;19953;-89
2023/03/18 12:15:34;;;;;;;;;;;18.30;99.10;;;;;;4977179;28;19910;-87
2023/03/18 12:21:22;;;;;;;;;;;18.40;99.90;;;;;;4975068;28;19918;-91
2023/03/18 12:24:09;;;;;;;;;;;18.40;99.00;;;;;;4980469;28;20447;-90
2023/03/18 12:26:47;;;;;;;;;;;18.40;99.00;;;;;;4951220;28;19910;-89
2023/03/18 12:29:32;;;;;;;;;;;18.40;98.90;;;;;;4980513;28;19918;-89
2023/03/18 12:32:03;;;;;;;;;;;18.40;99.20;;;;;;4980515;28;20467;-89
2023/03/18 12:34:45;;;;;;;;;;;18.40;98.60;;;;;;4980373;28;19914;-90
2023/03/18 12:37:31;;;;;;;;;;;18.40;98.70;;;;;;4980712;28;19917;-89
2023/03/18 12:40:05;;;;;;;;;;;18.30;98.30;;;;;;4980290;28;19910;-91
2023/03/18 12:42:37;;;;;;;;;;;18.30;97.80;;;;;;4980666;28;19910;-90
2023/03/18 12:45:19;;;;;;;;;;;18.30;98.00;;;;;;4981172;28;20012;-89
2023/03/18 12:47:58;;;;;;;;;;;18.20;98.30;;;;;;4997586;28;19975;-90
2023/03/18 12:50:26;;;;;;;;;;;18.20;98.80;;;;;;4979777;28;19910;-90
2023/03/18 12:52:54;;;;;;;;;;;18.30;99.20;;;;;;4979652;28;19909;-89
2023/03/18 12:55:32;;;;;;;;;;;18.30;99.00;;;;;;4979776;28;20390;-89
2023/03/18 12:58:00;;;;;;;;;;;18.30;98.70;;;;;;4979439;28;20369;-88
2023/03/18 13:00:31;;;;;;;;;;;18.20;97.90;;;;;;4977126;28;19965;-88
2023/03/18 13:03:01;;;;;;;;;;;18.20;98.10;;;;;;4982093;28;19909;-94
2023/03/18 13:05:37;;;;;;;;;;;18.20;97.70;;;;;;4992463;28;20001;-92
2023/03/18 13:08:09;;;;;;;;;;;18.10;97.60;;;;;;4982523;28;19914;-93
2023/03/18 13:10:36;;;;;;;;;;;18.10;97.80;;;;;;4985157;28;19961;-95
2023/03/18 13:13:04;;;;;;;;;;;18.10;97.40;;;;;;4984611;28;20009;-95
2023/03/18 13:15:32;;;;;;;;;;;18.10;98.20;;;;;;4982854;28;19914;-94
2023/03/18 13:18:16;;;;;;;;;;;18.10;97.80;;;;;;4981399;28;19910;-96
2023/03/18 13:20:42;;;;;;;;;;;18.00;97.60;;;;;;4981356;28;20307;-89
2023/03/18 13:23:17;;;;;;;;;;;17.90;96.60;;;;;;4993651;28;19922;-90
2023/03/18 13:26:01;;;;;;;;;;;17.90;97.10;;;;;;4995587;28;19916;-91
2023/03/18 13:28:46;;;;;;;;;;;17.80;97.90;;;;;;4995484;28;19914;-89
2023/03/18 13:31:30;;;;;;;;;;;17.70;94.90;;;;;;4995459;28;19933;-89
2023/03/18 13:34:09;;;;;;;;;;;17.70;95.40;;;;;;4994986;28;20418;-87
2023/03/18 13:36:42;;;;;;;;;;;17.60;95.70;;;;;;5009164;28;19910;-88
2023/03/18 13:39:23;;;;;;;;;;;17.70;96.70;;;;;;5007727;28;19921;-88
2023/03/18 13:41:55;;;;;;;;;;;17.70;96.20;;;;;;4998348;28;20401;-89
2023/03/18 13:44:23;;;;;;;;;;;17.70;95.90;;;;;;4995347;28;19910;-88
2023/03/18 13:46:55;;;;;;;;;;;17.70;95.80;;;;;;4986145;28;19914;-88
2023/03/18 13:49:23;;;;;;;;;;;17.70;96.00;;;;;;4988485;28;20037;-88
2023/03/18 13:51:55;;;;;;;;;;;17.80;96.40;;;;;;4994708;28;19914;-88
2023/03/18 13:54:21;;;;;;;;;;;17.80;96.70;;;;;;4994506;28;19910;-88
2023/03/18 13:56:54;;;;;;;;;;;17.90;97.60;;;;;;4994766;28;19910;-91
2023/03/18 13:59:32;;;;;;;;;;;17.90;97.00;;;;;;4994938;28;19914;-87
2023/03/18 14:02:17;;;;;;;;;;;17.90;96.40;;;;;;4994284;28;19909;-87
2023/03/18 14:04:50;;;;;;;;;;;18.00;97.00;;;;;;5004165;28;19910;-88
2023/03/18 14:07:17;;;;;;;;;;;18.00;96.30;;;;;;5003349;28;19916;-87
2023/03/18 14:09:46;;;;;;;;;;;18.10;96.60;;;;;;5017639;28;19920;-93
2023/03/18 14:12:17;;;;;;;;;;;18.00;96.80;;;;;;5029219;28;19893;-94
2023/03/18 14:14:50;;;;;;;;;;;17.90;96.90;;;;;;5033150;28;19964;-88
2023/03/18 14:17:21;;;;;;;;;;;17.90;98.00;;;;;;4992343;28;19922;-89
2023/03/18 14:19:47;;;;;;;;;;;17.80;99.50;;;;;;4975137;28;20249;-89
2023/03/18 14:22:17;;;;;;;;;;;17.70;99.90;;;;;;4974467;28;19932;-87
2023/03/18 14:24:44;;;;;;;;;;;17.60;99.70;;;;;;4974855;28;19914;-89
2023/03/18 14:27:16;;;;;;;;;;;17.50;99.60;;;;;;4959293;28;19949;-89
2023/03/18 14:29:43;;;;;;;;;;;17.50;99.90;;;;;;4974682;28;19940;-91